sensor_id;sensor_type;location;lat;lon;timestamp;P1;durP1;ratioP1;P2;durP2;ratioP2
1703;SDS011;849;48.780;9.216;2022-10-31T00:02:00;40.47;;;1.40;;
1703;SDS011;849;48.780;9.216;2022-10-31T00:04:25;40.57;;;1.40;;
1703;SDS011;849;48.780;9.216;2022-10-31T00:06:51;40.63;;;1.40;;
1703;SDS011;849;48.780;9.216;2022-10-31T00:09:16;40.53;;;1.40;;
1703;SDS011;849;48.780;9.216;2022-10-31T00:11:42;40.57;;;1.40;;
1703;SDS011;849;48.780;9.216;2022-10-31T00:14:08;40.43;;;1.40;;
1703;SDS011;849;48.780;9.216;2022-10-31T00:16:34;40.57;;;1.40;;
1703;SDS011;849;48.780;9.216;2022-10-31T00:19:00;40.67;;;1.40;;
1703;SDS011;849;48.780;9.216;2022-10-31T00:21:27;40.73;;;1.40;;
1703;SDS011;849;48.780;9.216;2022-10-31T00:23:54;40.47;;;1.47;;
1703;SDS011;849;48.780;9.216;2022-10-31T00:26:20;40.57;;;1.40;;
1703;SDS011;849;48.780;9.216;2022-10-31T00:28:46;40.57;;;1.37;;
1703;SDS011;849;48.780;9.216;2022-10-31T00:31:12;40.37;;;1.40;;
1703;SDS011;849;48.780;9.216;2022-10-31T00:33:38;40.43;;;1.40;;
1703;SDS011;849;48.780;9.216;2022-10-31T00:36:05;40.53;;;1.40;;
1703;SDS011;849;48.780;9.216;2022-10-31T00:38:32;40.53;;;1.40;;
1703;SDS011;849;48.780;9.216;2022-10-31T00:40:58;40.53;;;1.40;;
1703;SDS011;849;48.780;9.216;2022-10-31T00:43:23;40.57;;;1.47;;
1703;SDS011;849;48.780;9.216;2022-10-31T00:45:49;40.40;;;1.40;;
1703;SDS011;849;48.780;9.216;2022-10-31T00:48:15;40.57;;;1.50;;
1703;SDS011;849;48.780;9.216;2022-10-31T00:50:41;40.50;;;1.40;;
1703;SDS011;849;48.780;9.216;2022-10-31T00:53:06;40.50;;;1.37;;
1703;SDS011;849;48.780;9.216;2022-10-31T00:55:33;42.83;;;4.37;;
1703;SDS011;849;48.780;9.216;2022-10-31T00:57:58;40.57;;;1.40;;
1703;SDS011;849;48.780;9.216;2022-10-31T01:00:24;40.57;;;1.50;;
1703;SDS011;849;48.780;9.216;2022-10-31T01:02:50;40.37;;;1.47;;
1703;SDS011;849;48.780;9.216;2022-10-31T01:05:16;40.63;;;1.50;;
1703;SDS011;849;48.780;9.216;2022-10-31T01:07:42;40.57;;;1.60;;
1703;SDS011;849;48.780;9.216;2022-10-31T01:10:08;40.50;;;1.50;;
1703;SDS011;849;48.780;9.216;2022-10-31T01:12:39;40.60;;;1.53;;
1703;SDS011;849;48.780;9.216;2022-10-31T01:15:07;40.37;;;1.50;;
1703;SDS011;849;48.780;9.216;2022-10-31T01:17:34;40.40;;;1.60;;
1703;SDS011;849;48.780;9.216;2022-10-31T01:20:00;40.57;;;1.60;;
1703;SDS011;849;48.780;9.216;2022-10-31T01:22:26;40.37;;;1.57;;
1703;SDS011;849;48.780;9.216;2022-10-31T01:24:52;40.47;;;1.50;;
1703;SDS011;849;48.780;9.216;2022-10-31T01:27:18;40.57;;;1.50;;
1703;SDS011;849;48.780;9.216;2022-10-31T01:29:43;40.57;;;1.60;;
1703;SDS011;849;48.780;9.216;2022-10-31T01:32:09;40.53;;;1.43;;
1703;SDS011;849;48.780;9.216;2022-10-31T01:34:34;40.57;;;1.43;;
1703;SDS011;849;48.780;9.216;2022-10-31T01:37:00;40.57;;;1.60;;
1703;SDS011;849;48.780;9.216;2022-10-31T01:39:26;40.30;;;1.50;;
1703;SDS011;849;48.780;9.216;2022-10-31T01:41:52;40.40;;;1.50;;
1703;SDS011;849;48.780;9.216;2022-10-31T01:46:45;40.63;;;1.50;;
1703;SDS011;849;48.780;9.216;2022-10-31T01:49:24;40.43;;;1.50;;
1703;SDS011;849;48.780;9.216;2022-10-31T01:52:11;40.57;;;1.50;;
1703;SDS011;849;48.780;9.216;2022-10-31T01:54:42;40.57;;;1.60;;
1703;SDS011;849;48.780;9.216;2022-10-31T01:57:13;40.47;;;1.50;;
1703;SDS011;849;48.780;9.216;2022-10-31T01:59:42;40.37;;;1.60;;
1703;SDS011;849;48.780;9.216;2022-10-31T02:02:11;40.40;;;1.50;;
1703;SDS011;849;48.780;9.216;2022-10-31T02:04:38;40.53;;;1.60;;
1703;SDS011;849;48.780;9.216;2022-10-31T02:07:06;40.57;;;1.50;;
1703;SDS011;849;48.780;9.216;2022-10-31T02:09:35;40.37;;;1.50;;
1703;SDS011;849;48.780;9.216;2022-10-31T02:12:02;40.47;;;1.50;;
1703;SDS011;849;48.780;9.216;2022-10-31T02:14:29;40.63;;;1.70;;
1703;SDS011;849;48.780;9.216;2022-10-31T02:16:56;40.37;;;1.50;;
1703;SDS011;849;48.780;9.216;2022-10-31T02:19:28;40.40;;;1.60;;
1703;SDS011;849;48.780;9.216;2022-10-31T02:22:02;41.80;;;5.10;;
1703;SDS011;849;48.780;9.216;2022-10-31T02:24:45;40.47;;;1.40;;
1703;SDS011;849;48.780;9.216;2022-10-31T02:30:09;40.23;;;1.40;;
1703;SDS011;849;48.780;9.216;2022-10-31T02:38:37;40.27;;;1.40;;
1703;SDS011;849;48.780;9.216;2022-10-31T02:41:15;40.33;;;1.40;;
1703;SDS011;849;48.780;9.216;2022-10-31T02:46:27;40.27;;;1.50;;
1703;SDS011;849;48.780;9.216;2022-10-31T02:48:58;40.33;;;1.90;;
1703;SDS011;849;48.780;9.216;2022-10-31T02:51:27;40.47;;;1.50;;
1703;SDS011;849;48.780;9.216;2022-10-31T02:53:53;40.37;;;1.33;;
1703;SDS011;849;48.780;9.216;2022-10-31T02:56:19;40.50;;;1.40;;
1703;SDS011;849;48.780;9.216;2022-10-31T02:58:46;40.33;;;1.40;;
1703;SDS011;849;48.780;9.216;2022-10-31T03:09:32;40.50;;;1.40;;
1703;SDS011;849;48.780;9.216;2022-10-31T03:15:30;40.47;;;1.40;;
1703;SDS011;849;48.780;9.216;2022-10-31T03:17:53;40.30;;;1.40;;
1703;SDS011;849;48.780;9.216;2022-10-31T03:20:41;40.27;;;1.40;;
1703;SDS011;849;48.780;9.216;2022-10-31T03:23:14;40.27;;;1.40;;
1703;SDS011;849;48.780;9.216;2022-10-31T03:25:41;40.30;;;1.50;;
1703;SDS011;849;48.780;9.216;2022-10-31T03:28:11;40.43;;;1.30;;
1703;SDS011;849;48.780;9.216;2022-10-31T03:30:38;40.47;;;1.40;;
1703;SDS011;849;48.780;9.216;2022-10-31T03:33:09;40.27;;;1.60;;
1703;SDS011;849;48.780;9.216;2022-10-31T03:35:41;40.23;;;1.40;;
1703;SDS011;849;48.780;9.216;2022-10-31T03:38:10;40.20;;;1.40;;
1703;SDS011;849;48.780;9.216;2022-10-31T03:40:36;40.30;;;1.50;;
1703;SDS011;849;48.780;9.216;2022-10-31T03:43:05;40.27;;;1.50;;
1703;SDS011;849;48.780;9.216;2022-10-31T03:45:40;40.30;;;1.47;;
1703;SDS011;849;48.780;9.216;2022-10-31T03:48:10;40.40;;;1.40;;
1703;SDS011;849;48.780;9.216;2022-10-31T03:50:57;40.40;;;1.43;;
1703;SDS011;849;48.780;9.216;2022-10-31T03:53:32;40.47;;;1.60;;
1703;SDS011;849;48.780;9.216;2022-10-31T03:56:02;40.43;;;1.47;;
1703;SDS011;849;48.780;9.216;2022-10-31T03:58:39;40.37;;;1.40;;
1703;SDS011;849;48.780;9.216;2022-10-31T04:01:28;40.23;;;1.40;;
1703;SDS011;849;48.780;9.216;2022-10-31T04:03:56;40.37;;;1.50;;
1703;SDS011;849;48.780;9.216;2022-10-31T04:06:23;40.33;;;1.40;;
1703;SDS011;849;48.780;9.216;2022-10-31T04:08:55;40.50;;;2.27;;
1703;SDS011;849;48.780;9.216;2022-10-31T04:11:25;40.33;;;1.50;;
1703;SDS011;849;48.780;9.216;2022-10-31T04:13:55;40.37;;;1.50;;
1703;SDS011;849;48.780;9.216;2022-10-31T04:16:21;40.30;;;1.40;;
1703;SDS011;849;48.780;9.216;2022-10-31T04:18:49;40.33;;;1.43;;
1703;SDS011;849;48.780;9.216;2022-10-31T04:21:15;40.23;;;1.50;;
1703;SDS011;849;48.780;9.216;2022-10-31T04:23:41;40.30;;;1.40;;
1703;SDS011;849;48.780;9.216;2022-10-31T04:26:07;40.53;;;1.50;;
1703;SDS011;849;48.780;9.216;2022-10-31T04:28:36;40.37;;;1.40;;
1703;SDS011;849;48.780;9.216;2022-10-31T04:31:02;40.37;;;1.43;;
1703;SDS011;849;48.780;9.216;2022-10-31T04:33:28;40.53;;;1.50;;
1703;SDS011;849;48.780;9.216;2022-10-31T04:35:53;40.33;;;1.47;;
1703;SDS011;849;48.780;9.216;2022-10-31T04:38:19;40.33;;;1.50;;
1703;SDS011;849;48.780;9.216;2022-10-31T04:40:45;40.10;;;1.50;;
1703;SDS011;849;48.780;9.216;2022-10-31T04:43:10;40.27;;;1.60;;
1703;SDS011;849;48.780;9.216;2022-10-31T04:45:37;40.43;;;1.47;;
1703;SDS011;849;48.780;9.216;2022-10-31T04:48:03;40.30;;;1.50;;
1703;SDS011;849;48.780;9.216;2022-10-31T04:50:28;40.30;;;1.50;;
1703;SDS011;849;48.780;9.216;2022-10-31T04:52:54;40.37;;;1.50;;
1703;SDS011;849;48.780;9.216;2022-10-31T04:55:20;40.67;;;2.63;;
1703;SDS011;849;48.780;9.216;2022-10-31T04:57:46;40.33;;;1.60;;
1703;SDS011;849;48.780;9.216;2022-10-31T05:00:15;40.23;;;1.50;;
1703;SDS011;849;48.780;9.216;2022-10-31T05:02:48;40.47;;;1.53;;
1703;SDS011;849;48.780;9.216;2022-10-31T05:05:17;40.53;;;1.50;;
1703;SDS011;849;48.780;9.216;2022-10-31T05:07:44;40.57;;;1.50;;
1703;SDS011;849;48.780;9.216;2022-10-31T05:10:12;40.57;;;1.53;;
1703;SDS011;849;48.780;9.216;2022-10-31T05:12:46;40.53;;;1.60;;
1703;SDS011;849;48.780;9.216;2022-10-31T05:15:13;40.40;;;1.50;;
1703;SDS011;849;48.780;9.216;2022-10-31T05:17:39;40.63;;;1.50;;
1703;SDS011;849;48.780;9.216;2022-10-31T05:20:04;40.47;;;1.53;;
1703;SDS011;849;48.780;9.216;2022-10-31T05:22:31;40.57;;;1.57;;
1703;SDS011;849;48.780;9.216;2022-10-31T05:24:56;40.63;;;1.50;;
1703;SDS011;849;48.780;9.216;2022-10-31T05:27:22;40.40;;;1.47;;
1703;SDS011;849;48.780;9.216;2022-10-31T05:29:47;40.50;;;1.60;;
1703;SDS011;849;48.780;9.216;2022-10-31T05:32:13;40.53;;;1.60;;
1703;SDS011;849;48.780;9.216;2022-10-31T05:34:39;40.77;;;1.50;;
1703;SDS011;849;48.780;9.216;2022-10-31T05:37:04;40.40;;;1.40;;
1703;SDS011;849;48.780;9.216;2022-10-31T05:39:30;40.73;;;1.73;;
1703;SDS011;849;48.780;9.216;2022-10-31T05:41:55;40.53;;;1.50;;
1703;SDS011;849;48.780;9.216;2022-10-31T05:44:21;40.50;;;1.50;;
1703;SDS011;849;48.780;9.216;2022-10-31T05:46:47;40.67;;;1.60;;
1703;SDS011;849;48.780;9.216;2022-10-31T05:49:12;40.57;;;1.50;;
1703;SDS011;849;48.780;9.216;2022-10-31T05:51:38;40.47;;;1.40;;
1703;SDS011;849;48.780;9.216;2022-10-31T05:54:03;40.67;;;1.40;;
1703;SDS011;849;48.780;9.216;2022-10-31T05:56:29;40.57;;;1.50;;
1703;SDS011;849;48.780;9.216;2022-10-31T05:58:55;40.63;;;1.50;;
1703;SDS011;849;48.780;9.216;2022-10-31T06:01:21;40.77;;;1.60;;
1703;SDS011;849;48.780;9.216;2022-10-31T06:03:46;40.57;;;1.50;;
1703;SDS011;849;48.780;9.216;2022-10-31T06:06:12;40.57;;;1.60;;
1703;SDS011;849;48.780;9.216;2022-10-31T06:08:37;40.60;;;1.47;;
1703;SDS011;849;48.780;9.216;2022-10-31T06:11:03;40.70;;;1.50;;
1703;SDS011;849;48.780;9.216;2022-10-31T06:13:29;40.50;;;1.57;;
1703;SDS011;849;48.780;9.216;2022-10-31T06:15:55;40.53;;;1.40;;
1703;SDS011;849;48.780;9.216;2022-10-31T06:18:20;40.57;;;1.40;;
1703;SDS011;849;48.780;9.216;2022-10-31T06:20:46;40.67;;;1.40;;
1703;SDS011;849;48.780;9.216;2022-10-31T06:23:12;40.57;;;1.47;;
1703;SDS011;849;48.780;9.216;2022-10-31T06:25:37;40.63;;;1.50;;
1703;SDS011;849;48.780;9.216;2022-10-31T06:28:03;40.57;;;1.50;;
1703;SDS011;849;48.780;9.216;2022-10-31T06:30:29;40.60;;;1.43;;
1703;SDS011;849;48.780;9.216;2022-10-31T06:32:58;40.67;;;1.30;;
1703;SDS011;849;48.780;9.216;2022-10-31T06:35:27;40.60;;;1.43;;
1703;SDS011;849;48.780;9.216;2022-10-31T06:37:53;40.60;;;1.50;;
1703;SDS011;849;48.780;9.216;2022-10-31T06:40:19;40.60;;;1.60;;
1703;SDS011;849;48.780;9.216;2022-10-31T06:42:45;40.57;;;1.50;;
1703;SDS011;849;48.780;9.216;2022-10-31T06:45:10;40.63;;;1.43;;
1703;SDS011;849;48.780;9.216;2022-10-31T06:47:36;40.73;;;1.50;;
1703;SDS011;849;48.780;9.216;2022-10-31T06:50:02;40.57;;;1.40;;
1703;SDS011;849;48.780;9.216;2022-10-31T06:52:27;40.57;;;1.40;;
1703;SDS011;849;48.780;9.216;2022-10-31T06:54:53;40.63;;;1.40;;
1703;SDS011;849;48.780;9.216;2022-10-31T06:57:18;40.63;;;1.40;;
1703;SDS011;849;48.780;9.216;2022-10-31T06:59:44;40.47;;;1.40;;
1703;SDS011;849;48.780;9.216;2022-10-31T07:02:10;40.47;;;1.50;;
1703;SDS011;849;48.780;9.216;2022-10-31T07:04:36;40.43;;;1.50;;
1703;SDS011;849;48.780;9.216;2022-10-31T07:07:02;40.23;;;1.50;;
1703;SDS011;849;48.780;9.216;2022-10-31T07:09:28;40.37;;;1.43;;
1703;SDS011;849;48.780;9.216;2022-10-31T07:11:53;40.33;;;1.40;;
1703;SDS011;849;48.780;9.216;2022-10-31T07:14:19;40.17;;;1.40;;
1703;SDS011;849;48.780;9.216;2022-10-31T07:16:48;40.17;;;1.40;;
1703;SDS011;849;48.780;9.216;2022-10-31T07:19:15;40.07;;;1.37;;
1703;SDS011;849;48.780;9.216;2022-10-31T07:21:41;40.07;;;1.40;;
1703;SDS011;849;48.780;9.216;2022-10-31T07:24:07;39.97;;;1.40;;
1703;SDS011;849;48.780;9.216;2022-10-31T07:26:32;39.83;;;1.50;;
1703;SDS011;849;48.780;9.216;2022-10-31T07:28:58;39.87;;;1.40;;
1703;SDS011;849;48.780;9.216;2022-10-31T07:31:24;39.87;;;1.40;;
1703;SDS011;849;48.780;9.216;2022-10-31T07:33:50;39.57;;;1.30;;
1703;SDS011;849;48.780;9.216;2022-10-31T07:36:15;39.67;;;1.30;;
1703;SDS011;849;48.780;9.216;2022-10-31T07:38:43;39.43;;;1.40;;
1703;SDS011;849;48.780;9.216;2022-10-31T07:41:09;39.43;;;1.30;;
1703;SDS011;849;48.780;9.216;2022-10-31T07:43:35;39.27;;;1.30;;
1703;SDS011;849;48.780;9.216;2022-10-31T07:46:01;39.20;;;1.30;;
1703;SDS011;849;48.780;9.216;2022-10-31T07:48:28;39.17;;;1.30;;
1703;SDS011;849;48.780;9.216;2022-10-31T07:50:54;39.03;;;1.40;;
1703;SDS011;849;48.780;9.216;2022-10-31T07:53:20;39.13;;;1.40;;
1703;SDS011;849;48.780;9.216;2022-10-31T07:55:46;39.03;;;1.40;;
1703;SDS011;849;48.780;9.216;2022-10-31T07:58:13;38.87;;;1.30;;
1703;SDS011;849;48.780;9.216;2022-10-31T08:00:40;38.77;;;1.40;;
1703;SDS011;849;48.780;9.216;2022-10-31T08:03:09;38.63;;;1.30;;
1703;SDS011;849;48.780;9.216;2022-10-31T08:05:36;38.67;;;1.27;;
1703;SDS011;849;48.780;9.216;2022-10-31T08:08:03;38.67;;;1.30;;
1703;SDS011;849;48.780;9.216;2022-10-31T08:10:29;38.37;;;1.27;;
1703;SDS011;849;48.780;9.216;2022-10-31T08:13:02;38.67;;;1.30;;
1703;SDS011;849;48.780;9.216;2022-10-31T08:15:33;38.37;;;1.23;;
1703;SDS011;849;48.780;9.216;2022-10-31T08:18:02;38.37;;;1.20;;
1703;SDS011;849;48.780;9.216;2022-10-31T08:20:28;38.37;;;1.20;;
1703;SDS011;849;48.780;9.216;2022-10-31T08:22:58;38.40;;;1.20;;
1703;SDS011;849;48.780;9.216;2022-10-31T08:25:26;38.17;;;1.20;;
1703;SDS011;849;48.780;9.216;2022-10-31T08:27:54;38.43;;;1.20;;
1703;SDS011;849;48.780;9.216;2022-10-31T08:30:21;38.37;;;1.20;;
1703;SDS011;849;48.780;9.216;2022-10-31T08:32:56;38.27;;;1.20;;
1703;SDS011;849;48.780;9.216;2022-10-31T08:35:23;38.33;;;1.20;;
1703;SDS011;849;48.780;9.216;2022-10-31T08:37:53;38.37;;;1.10;;
1703;SDS011;849;48.780;9.216;2022-10-31T08:40:19;38.23;;;1.10;;
1703;SDS011;849;48.780;9.216;2022-10-31T08:42:45;38.13;;;1.20;;
1703;SDS011;849;48.780;9.216;2022-10-31T08:45:11;38.00;;;1.20;;
1703;SDS011;849;48.780;9.216;2022-10-31T08:47:36;38.27;;;1.20;;
1703;SDS011;849;48.780;9.216;2022-10-31T08:50:02;38.07;;;1.10;;
1703;SDS011;849;48.780;9.216;2022-10-31T08:52:28;38.27;;;1.20;;
1703;SDS011;849;48.780;9.216;2022-10-31T08:54:53;38.17;;;1.17;;
1703;SDS011;849;48.780;9.216;2022-10-31T08:57:19;38.17;;;1.20;;
1703;SDS011;849;48.780;9.216;2022-10-31T08:59:45;38.17;;;1.10;;
1703;SDS011;849;48.780;9.216;2022-10-31T09:02:11;38.23;;;1.07;;
1703;SDS011;849;48.780;9.216;2022-10-31T09:04:36;38.17;;;1.20;;
1703;SDS011;849;48.780;9.216;2022-10-31T09:07:02;38.13;;;1.10;;
1703;SDS011;849;48.780;9.216;2022-10-31T09:09:27;38.27;;;1.10;;
1703;SDS011;849;48.780;9.216;2022-10-31T09:11:53;38.30;;;1.10;;
1703;SDS011;849;48.780;9.216;2022-10-31T09:14:19;38.13;;;1.20;;
1703;SDS011;849;48.780;9.216;2022-10-31T09:16:44;38.07;;;1.10;;
1703;SDS011;849;48.780;9.216;2022-10-31T09:19:10;38.07;;;1.10;;
1703;SDS011;849;48.780;9.216;2022-10-31T09:21:35;38.17;;;1.10;;
1703;SDS011;849;48.780;9.216;2022-10-31T09:24:01;38.23;;;1.17;;
1703;SDS011;849;48.780;9.216;2022-10-31T09:26:27;38.03;;;1.10;;
1703;SDS011;849;48.780;9.216;2022-10-31T09:28:52;37.93;;;1.10;;
1703;SDS011;849;48.780;9.216;2022-10-31T09:31:18;38.07;;;1.10;;
1703;SDS011;849;48.780;9.216;2022-10-31T09:33:44;38.70;;;2.53;;
1703;SDS011;849;48.780;9.216;2022-10-31T09:36:09;37.93;;;1.17;;
1703;SDS011;849;48.780;9.216;2022-10-31T09:38:35;38.10;;;1.13;;
1703;SDS011;849;48.780;9.216;2022-10-31T09:41:19;38.13;;;1.20;;
1703;SDS011;849;48.780;9.216;2022-10-31T09:44:25;38.13;;;1.20;;
1703;SDS011;849;48.780;9.216;2022-10-31T09:50:25;38.17;;;1.20;;
1703;SDS011;849;48.780;9.216;2022-10-31T09:52:59;38.43;;;1.17;;
1703;SDS011;849;48.780;9.216;2022-10-31T09:55:37;38.47;;;1.20;;
1703;SDS011;849;48.780;9.216;2022-10-31T09:58:09;38.27;;;1.20;;
1703;SDS011;849;48.780;9.216;2022-10-31T10:00:44;38.43;;;1.57;;
1703;SDS011;849;48.780;9.216;2022-10-31T10:05:54;38.73;;;1.20;;
1703;SDS011;849;48.780;9.216;2022-10-31T10:08:32;38.73;;;1.20;;
1703;SDS011;849;48.780;9.216;2022-10-31T10:16:32;38.67;;;1.20;;
1703;SDS011;849;48.780;9.216;2022-10-31T10:36:27;39.53;;;1.30;;
1703;SDS011;849;48.780;9.216;2022-10-31T10:39:08;39.47;;;1.30;;
1703;SDS011;849;48.780;9.216;2022-10-31T10:41:43;39.63;;;1.20;;
1703;SDS011;849;48.780;9.216;2022-10-31T10:44:12;39.97;;;1.40;;
1703;SDS011;849;48.780;9.216;2022-10-31T10:46:42;39.97;;;1.50;;
1703;SDS011;849;48.780;9.216;2022-10-31T10:49:44;39.93;;;1.40;;
1703;SDS011;849;48.780;9.216;2022-10-31T10:56:14;40.50;;;1.50;;
1703;SDS011;849;48.780;9.216;2022-10-31T10:58:22;40.47;;;1.40;;
1703;SDS011;849;48.780;9.216;2022-10-31T11:00:47;40.60;;;1.50;;
1703;SDS011;849;48.780;9.216;2022-10-31T11:03:20;40.60;;;1.47;;
1703;SDS011;849;48.780;9.216;2022-10-31T11:05:53;40.67;;;1.50;;
1703;SDS011;849;48.780;9.216;2022-10-31T11:08:33;40.87;;;1.60;;
1703;SDS011;849;48.780;9.216;2022-10-31T11:11:03;40.67;;;1.60;;
1703;SDS011;849;48.780;9.216;2022-10-31T11:13:34;40.87;;;1.60;;
1703;SDS011;849;48.780;9.216;2022-10-31T11:16:08;41.13;;;1.70;;
1703;SDS011;849;48.780;9.216;2022-10-31T11:18:39;41.17;;;1.57;;
1703;SDS011;849;48.780;9.216;2022-10-31T11:21:19;41.17;;;1.60;;
1703;SDS011;849;48.780;9.216;2022-10-31T11:23:46;41.40;;;1.70;;
1703;SDS011;849;48.780;9.216;2022-10-31T11:26:29;41.87;;;1.80;;
1703;SDS011;849;48.780;9.216;2022-10-31T11:28:56;42.07;;;1.80;;
1703;SDS011;849;48.780;9.216;2022-10-31T11:31:23;42.00;;;1.80;;
1703;SDS011;849;48.780;9.216;2022-10-31T11:33:54;42.27;;;1.90;;
1703;SDS011;849;48.780;9.216;2022-10-31T11:36:32;41.90;;;1.70;;
1703;SDS011;849;48.780;9.216;2022-10-31T11:39:01;42.13;;;1.77;;
1703;SDS011;849;48.780;9.216;2022-10-31T11:41:32;42.37;;;1.70;;
1703;SDS011;849;48.780;9.216;2022-10-31T11:44:23;42.40;;;1.70;;
1703;SDS011;849;48.780;9.216;2022-10-31T11:46:52;42.40;;;1.70;;
1703;SDS011;849;48.780;9.216;2022-10-31T11:51:58;42.30;;;1.90;;
1703;SDS011;849;48.780;9.216;2022-10-31T11:54:34;42.40;;;1.70;;
1703;SDS011;849;48.780;9.216;2022-10-31T11:57:25;42.40;;;1.80;;
1703;SDS011;849;48.780;9.216;2022-10-31T11:59:58;42.50;;;1.73;;
1703;SDS011;849;48.780;9.216;2022-10-31T12:02:26;42.40;;;1.80;;
1703;SDS011;849;48.780;9.216;2022-10-31T12:07:50;42.73;;;1.80;;
1703;SDS011;849;48.780;9.216;2022-10-31T12:10:16;42.77;;;1.90;;
1703;SDS011;849;48.780;9.216;2022-10-31T12:15:26;42.83;;;1.87;;
1703;SDS011;849;48.780;9.216;2022-10-31T12:18:02;43.10;;;2.00;;
1703;SDS011;849;48.780;9.216;2022-10-31T12:29:49;43.63;;;2.10;;
1703;SDS011;849;48.780;9.216;2022-10-31T12:32:29;43.90;;;2.10;;
1703;SDS011;849;48.780;9.216;2022-10-31T12:37:51;44.17;;;2.10;;
1703;SDS011;849;48.780;9.216;2022-10-31T12:46:35;44.20;;;2.00;;
1703;SDS011;849;48.780;9.216;2022-10-31T13:00:26;44.57;;;2.20;;
1703;SDS011;849;48.780;9.216;2022-10-31T13:05:43;44.50;;;2.27;;
1703;SDS011;849;48.780;9.216;2022-10-31T13:08:30;44.60;;;2.10;;
1703;SDS011;849;48.780;9.216;2022-10-31T13:11:10;44.60;;;2.27;;
1703;SDS011;849;48.780;9.216;2022-10-31T13:16:18;44.80;;;2.30;;
1703;SDS011;849;48.780;9.216;2022-10-31T13:18:57;44.70;;;2.27;;
1703;SDS011;849;48.780;9.216;2022-10-31T13:22:03;44.87;;;2.30;;
1703;SDS011;849;48.780;9.216;2022-10-31T13:24:35;44.70;;;2.30;;
1703;SDS011;849;48.780;9.216;2022-10-31T13:27:13;44.80;;;2.30;;
1703;SDS011;849;48.780;9.216;2022-10-31T13:29:59;44.87;;;2.37;;
1703;SDS011;849;48.780;9.216;2022-10-31T13:32:29;44.90;;;2.30;;
1703;SDS011;849;48.780;9.216;2022-10-31T13:35:13;44.90;;;2.40;;
1703;SDS011;849;48.780;9.216;2022-10-31T13:38:02;44.90;;;2.30;;
1703;SDS011;849;48.780;9.216;2022-10-31T13:40:45;44.90;;;2.30;;
1703;SDS011;849;48.780;9.216;2022-10-31T13:45:47;45.10;;;2.43;;
1703;SDS011;849;48.780;9.216;2022-10-31T13:48:41;45.00;;;2.40;;
1703;SDS011;849;48.780;9.216;2022-10-31T13:51:09;44.83;;;2.33;;
1703;SDS011;849;48.780;9.216;2022-10-31T13:58:38;44.90;;;2.20;;
1703;SDS011;849;48.780;9.216;2022-10-31T14:03:35;45.07;;;2.20;;
1703;SDS011;849;48.780;9.216;2022-10-31T14:06:02;45.00;;;2.07;;
1703;SDS011;849;48.780;9.216;2022-10-31T14:08:28;44.80;;;2.20;;
1703;SDS011;849;48.780;9.216;2022-10-31T14:10:58;45.00;;;2.40;;
1703;SDS011;849;48.780;9.216;2022-10-31T14:13:27;44.90;;;2.20;;
1703;SDS011;849;48.780;9.216;2022-10-31T14:16:01;44.90;;;2.27;;
1703;SDS011;849;48.780;9.216;2022-10-31T14:18:30;44.90;;;2.30;;
1703;SDS011;849;48.780;9.216;2022-10-31T14:20:58;45.00;;;2.27;;
1703;SDS011;849;48.780;9.216;2022-10-31T14:28:50;44.90;;;2.30;;
1703;SDS011;849;48.780;9.216;2022-10-31T14:31:57;44.90;;;2.20;;
1703;SDS011;849;48.780;9.216;2022-10-31T14:34:42;45.03;;;2.30;;
1703;SDS011;849;48.780;9.216;2022-10-31T14:45:49;45.00;;;2.40;;
1703;SDS011;849;48.780;9.216;2022-10-31T14:51:18;44.80;;;2.30;;
1703;SDS011;849;48.780;9.216;2022-10-31T14:53:46;44.70;;;2.20;;
1703;SDS011;849;48.780;9.216;2022-10-31T14:56:37;44.80;;;2.30;;
1703;SDS011;849;48.780;9.216;2022-10-31T14:59:09;44.67;;;2.40;;
1703;SDS011;849;48.780;9.216;2022-10-31T15:01:53;45.07;;;3.77;;
1703;SDS011;849;48.780;9.216;2022-10-31T15:04:22;44.40;;;2.23;;
1703;SDS011;849;48.780;9.216;2022-10-31T15:09:43;48.20;;;5.70;;
1703;SDS011;849;48.780;9.216;2022-10-31T15:12:22;44.37;;;2.20;;
1703;SDS011;849;48.780;9.216;2022-10-31T15:14:52;44.20;;;2.17;;
1703;SDS011;849;48.780;9.216;2022-10-31T15:17:19;44.27;;;2.20;;
1703;SDS011;849;48.780;9.216;2022-10-31T15:19:46;44.20;;;2.40;;
1703;SDS011;849;48.780;9.216;2022-10-31T15:22:18;44.10;;;2.40;;
1703;SDS011;849;48.780;9.216;2022-10-31T15:24:50;44.10;;;2.20;;
1703;SDS011;849;48.780;9.216;2022-10-31T15:27:21;43.67;;;2.10;;
1703;SDS011;849;48.780;9.216;2022-10-31T15:29:52;43.60;;;1.97;;
1703;SDS011;849;48.780;9.216;2022-10-31T15:32:29;43.50;;;2.10;;
1703;SDS011;849;48.780;9.216;2022-10-31T15:34:55;43.47;;;1.97;;
1703;SDS011;849;48.780;9.216;2022-10-31T15:37:23;43.10;;;1.90;;
1703;SDS011;849;48.780;9.216;2022-10-31T15:39:50;43.20;;;1.90;;
1703;SDS011;849;48.780;9.216;2022-10-31T15:44:56;43.10;;;1.87;;
1703;SDS011;849;48.780;9.216;2022-10-31T15:47:26;43.07;;;1.90;;
1703;SDS011;849;48.780;9.216;2022-10-31T15:49:55;42.83;;;1.80;;
1703;SDS011;849;48.780;9.216;2022-10-31T15:55:15;42.70;;;1.90;;
1703;SDS011;849;48.780;9.216;2022-10-31T15:57:45;42.50;;;1.90;;
1703;SDS011;849;48.780;9.216;2022-10-31T16:03:05;42.43;;;1.80;;
1703;SDS011;849;48.780;9.216;2022-10-31T16:05:45;42.20;;;1.80;;
1703;SDS011;849;48.780;9.216;2022-10-31T16:10:50;42.27;;;1.70;;
1703;SDS011;849;48.780;9.216;2022-10-31T16:13:17;42.47;;;1.80;;
1703;SDS011;849;48.780;9.216;2022-10-31T16:15:47;42.30;;;1.77;;
1703;SDS011;849;48.780;9.216;2022-10-31T16:18:15;42.23;;;1.80;;
1703;SDS011;849;48.780;9.216;2022-10-31T16:20:40;42.07;;;1.80;;
1703;SDS011;849;48.780;9.216;2022-10-31T16:23:18;42.00;;;1.80;;
1703;SDS011;849;48.780;9.216;2022-10-31T16:25:45;42.03;;;1.70;;
1703;SDS011;849;48.780;9.216;2022-10-31T16:28:30;41.97;;;1.70;;
1703;SDS011;849;48.780;9.216;2022-10-31T16:30:57;41.80;;;1.70;;
1703;SDS011;849;48.780;9.216;2022-10-31T16:33:29;41.73;;;1.70;;
1703;SDS011;849;48.780;9.216;2022-10-31T16:38:56;41.67;;;1.70;;
1703;SDS011;849;48.780;9.216;2022-10-31T16:41:24;41.57;;;1.60;;
1703;SDS011;849;48.780;9.216;2022-10-31T16:43:51;41.57;;;1.53;;
1703;SDS011;849;48.780;9.216;2022-10-31T16:46:19;41.37;;;1.70;;
1703;SDS011;849;48.780;9.216;2022-10-31T16:48:52;41.37;;;1.70;;
1703;SDS011;849;48.780;9.216;2022-10-31T16:51:19;41.37;;;1.60;;
1703;SDS011;849;48.780;9.216;2022-10-31T16:53:45;41.37;;;1.60;;
1703;SDS011;849;48.780;9.216;2022-10-31T16:56:15;41.27;;;1.60;;
1703;SDS011;849;48.780;9.216;2022-10-31T16:58:48;41.27;;;1.70;;
1703;SDS011;849;48.780;9.216;2022-10-31T17:01:14;41.23;;;1.60;;
1703;SDS011;849;48.780;9.216;2022-10-31T17:03:40;41.33;;;1.70;;
1703;SDS011;849;48.780;9.216;2022-10-31T17:06:08;41.17;;;1.60;;
1703;SDS011;849;48.780;9.216;2022-10-31T17:08:36;41.17;;;1.60;;
1703;SDS011;849;48.780;9.216;2022-10-31T17:11:02;41.37;;;1.80;;
1703;SDS011;849;48.780;9.216;2022-10-31T17:13:29;41.17;;;1.60;;
1703;SDS011;849;48.780;9.216;2022-10-31T17:15:57;41.20;;;1.70;;
1703;SDS011;849;48.780;9.216;2022-10-31T17:18:24;41.27;;;1.50;;
1703;SDS011;849;48.780;9.216;2022-10-31T17:20:53;41.03;;;1.53;;
1703;SDS011;849;48.780;9.216;2022-10-31T17:23:21;41.23;;;1.47;;
1703;SDS011;849;48.780;9.216;2022-10-31T17:25:47;41.00;;;1.60;;
1703;SDS011;849;48.780;9.216;2022-10-31T17:28:13;41.17;;;1.50;;
1703;SDS011;849;48.780;9.216;2022-10-31T17:30:39;41.03;;;1.50;;
1703;SDS011;849;48.780;9.216;2022-10-31T17:33:09;41.10;;;1.60;;
1703;SDS011;849;48.780;9.216;2022-10-31T17:35:40;41.00;;;1.50;;
1703;SDS011;849;48.780;9.216;2022-10-31T17:38:06;41.30;;;1.97;;
1703;SDS011;849;48.780;9.216;2022-10-31T17:40:32;41.00;;;1.67;;
1703;SDS011;849;48.780;9.216;2022-10-31T17:42:57;40.97;;;1.60;;
1703;SDS011;849;48.780;9.216;2022-10-31T17:45:24;40.97;;;1.97;;
1703;SDS011;849;48.780;9.216;2022-10-31T17:47:50;40.80;;;1.50;;
1703;SDS011;849;48.780;9.216;2022-10-31T17:50:18;40.90;;;1.50;;
1703;SDS011;849;48.780;9.216;2022-10-31T17:52:45;48.37;;;10.20;;
1703;SDS011;849;48.780;9.216;2022-10-31T17:55:11;40.87;;;1.50;;